Time;durP1;ratioP1;P1;durP2;ratioP2;P2;SDS_P1;SDS_P2;PMS_P1;PMS_P2;Temp;Humidity;BMP_temperature;BMP_pressure;BME280_temperature;BME280_humidity;BME280_pressure;Samples;Min_cycle;Max_cycle;Signal;HPM_P1;HPM_P2
2022/07/24 00:01:00;;;;;;;2.35;2.15;;;;;;;;;;5060187;28;20603;-17
2022/07/24 00:03:28;;;;;;;2.88;2.25;;;;;;;;;;5058760;28;20723;-17
2022/07/24 00:05:57;;;;;;;2.65;2.40;;;;;;;;;;5063710;28;20230;-17
2022/07/24 00:08:27;;;;;;;2.83;2.45;;;;;;;;;;5070667;28;20230;-17
2022/07/24 00:10:54;;;;;;;3.47;2.60;;;;;;;;;;5056496;28;20280;-17
2022/07/24 00:13:22;;;;;;;2.35;2.15;;;;;;;;;;5052417;28;20237;-17
2022/07/24 00:15:49;;;;;;;2.63;2.30;;;;;;;;;;5063999;28;20230;-17
2022/07/24 00:18:16;;;;;;;2.75;2.55;;;;;;;;;;5064071;28;20256;-17
2022/07/24 00:20:45;;;;;;;2.20;2.00;;;;;;;;;;5056202;28;20279;-17
2022/07/24 00:23:16;;;;;;;3.05;2.40;;;;;;;;;;5055453;28;20301;-17
2022/07/24 00:25:44;;;;;;;2.88;2.60;;;;;;;;;;5069899;28;20236;-17
2022/07/24 00:28:11;;;;;;;2.85;2.65;;;;;;;;;;5061851;28;20226;-17
2022/07/24 00:30:38;;;;;;;2.63;2.22;;;;;;;;;;5063190;28;20317;-16
2022/07/24 00:33:06;;;;;;;2.63;2.40;;;;;;;;;;5055997;28;20323;-16
2022/07/24 00:35:33;;;;;;;2.75;2.40;;;;;;;;;;5059769;28;20233;-17
2022/07/24 00:38:01;;;;;;;3.05;2.55;;;;;;;;;;5059596;28;21061;-17
2022/07/24 00:40:30;;;;;;;2.95;2.55;;;;;;;;;;5066891;28;20701;-17
2022/07/24 00:42:58;;;;;;;2.80;2.47;;;;;;;;;;5064493;28;21022;-17
2022/07/24 00:45:25;;;;;;;2.95;2.65;;;;;;;;;;5073496;28;20240;-17
2022/07/24 00:47:53;;;;;;;3.00;2.42;;;;;;;;;;5073565;28;20728;-17
2022/07/24 00:50:24;;;;;;;2.60;2.40;;;;;;;;;;5063462;28;20261;-16
2022/07/24 00:52:52;;;;;;;3.10;2.55;;;;;;;;;;5073548;28;20249;-17
2022/07/24 00:55:20;;;;;;;3.97;2.60;;;;;;;;;;5073523;28;20615;-17
2022/07/24 00:57:50;;;;;;;2.90;2.60;;;;;;;;;;5045983;28;20748;-16
2022/07/24 01:00:18;;;;;;;3.20;2.72;;;;;;;;;;5070509;28;20236;-16
2022/07/24 01:02:45;;;;;;;5.32;2.50;;;;;;;;;;5071735;28;20604;-16
2022/07/24 01:05:13;;;;;;;2.72;2.50;;;;;;;;;;5061935;28;20226;-16
2022/07/24 01:07:40;;;;;;;4.80;2.60;;;;;;;;;;5070686;28;20233;-17
2022/07/24 01:10:08;;;;;;;3.90;2.65;;;;;;;;;;5073671;28;20230;-17
2022/07/24 01:12:35;;;;;;;4.03;2.75;;;;;;;;;;5062358;28;20298;-17
2022/07/24 01:15:05;;;;;;;2.92;2.63;;;;;;;;;;5073105;28;20352;-17
2022/07/24 01:17:34;;;;;;;3.28;2.72;;;;;;;;;;5062008;28;20257;-16
2022/07/24 01:20:01;;;;;;;2.92;2.60;;;;;;;;;;5059942;28;20226;-17
2022/07/24 01:22:30;;;;;;;3.53;2.60;;;;;;;;;;5057858;28;20237;-17
2022/07/24 01:24:57;;;;;;;2.80;2.60;;;;;;;;;;5061033;28;20229;-17
2022/07/24 01:27:25;;;;;;;2.70;2.45;;;;;;;;;;5058606;28;20232;-17
2022/07/24 01:29:52;;;;;;;2.78;2.58;;;;;;;;;;5057366;28;20238;-17
2022/07/24 01:32:19;;;;;;;3.17;2.47;;;;;;;;;;5059862;28;20229;-17
2022/07/24 01:34:47;;;;;;;2.95;2.65;;;;;;;;;;5052308;28;20234;-17
2022/07/24 01:37:14;;;;;;;3.17;2.30;;;;;;;;;;5052708;28;20242;-16
2022/07/24 01:39:43;;;;;;;4.57;2.70;;;;;;;;;;5066659;28;20237;-16
2022/07/24 01:42:10;;;;;;;3.10;2.80;;;;;;;;;;5072714;28;20234;-17
2022/07/24 01:44:37;;;;;;;2.45;2.25;;;;;;;;;;5059187;28;20273;-16
2022/07/24 01:47:05;;;;;;;2.47;2.28;;;;;;;;;;5057569;28;20353;-16
2022/07/24 01:49:32;;;;;;;2.25;2.05;;;;;;;;;;5072625;28;20233;-17
2022/07/24 01:52:00;;;;;;;3.03;2.40;;;;;;;;;;5072086;28;20345;-16
2022/07/24 01:54:27;;;;;;;3.97;2.60;;;;;;;;;;5062610;28;20261;-17
2022/07/24 01:56:56;;;;;;;4.00;2.72;;;;;;;;;;5054466;28;20237;-17
2022/07/24 01:59:24;;;;;;;3.20;2.50;;;;;;;;;;5072381;28;20591;-16
2022/07/24 02:01:52;;;;;;;2.55;2.35;;;;;;;;;;5053757;28;20234;-17
2022/07/24 02:04:20;;;;;;;2.97;2.65;;;;;;;;;;5065305;28;20238;-16
2022/07/24 02:06:48;;;;;;;2.80;2.50;;;;;;;;;;5059457;28;20642;-16
2022/07/24 02:09:15;;;;;;;2.80;2.60;;;;;;;;;;5071925;28;20312;-17
2022/07/24 02:11:43;;;;;;;2.85;2.55;;;;;;;;;;5071880;28;20227;-17
2022/07/24 02:14:11;;;;;;;3.38;2.72;;;;;;;;;;5067948;28;20315;-16
2022/07/24 02:16:39;;;;;;;2.60;2.40;;;;;;;;;;5061635;28;20237;-17
2022/07/24 02:19:06;;;;;;;3.38;2.65;;;;;;;;;;5057797;28;20234;-16
2022/07/24 02:21:34;;;;;;;2.95;2.75;;;;;;;;;;5070298;28;20272;-16
2022/07/24 02:24:01;;;;;;;2.15;1.95;;;;;;;;;;5072145;28;20240;-17
2022/07/24 02:26:29;;;;;;;2.72;2.53;;;;;;;;;;5068267;28;20222;-17
2022/07/24 02:28:56;;;;;;;2.70;2.33;;;;;;;;;;5064241;28;20234;-17
2022/07/24 02:31:25;;;;;;;2.70;2.50;;;;;;;;;;5049344;28;20348;-17
2022/07/24 02:33:52;;;;;;;2.78;2.58;;;;;;;;;;5072063;28;20249;-16
2022/07/24 02:36:20;;;;;;;2.92;2.67;;;;;;;;;;5072075;28;20283;-16
2022/07/24 02:38:47;;;;;;;3.15;2.50;;;;;;;;;;5071917;28;20232;-17
2022/07/24 02:41:15;;;;;;;3.80;2.63;;;;;;;;;;5052340;28;20230;-16
2022/07/24 02:43:42;;;;;;;2.85;2.65;;;;;;;;;;5060846;28;20240;-17
2022/07/24 02:46:09;;;;;;;2.83;2.50;;;;;;;;;;5063616;28;20225;-16
2022/07/24 02:48:38;;;;;;;3.00;2.70;;;;;;;;;;5063834;28;20284;-16
2022/07/24 02:51:06;;;;;;;3.20;2.90;;;;;;;;;;5050459;28;21047;-17
2022/07/24 02:53:33;;;;;;;3.08;2.70;;;;;;;;;;5057681;28;20238;-17
2022/07/24 02:56:00;;;;;;;2.78;2.50;;;;;;;;;;5059323;28;20249;-16
2022/07/24 02:58:28;;;;;;;3.63;2.75;;;;;;;;;;5069774;28;20979;-16
2022/07/24 03:00:55;;;;;;;3.17;2.88;;;;;;;;;;5062894;28;20232;-16
2022/07/24 03:03:23;;;;;;;3.65;2.70;;;;;;;;;;5053746;28;20285;-17
2022/07/24 03:05:51;;;;;;;4.38;2.70;;;;;;;;;;5059534;28;20230;-17
2022/07/24 03:08:19;;;;;;;2.88;2.47;;;;;;;;;;5071467;28;20240;-16
2022/07/24 03:10:46;;;;;;;3.67;2.80;;;;;;;;;;5071308;28;20225;-17
2022/07/24 03:13:13;;;;;;;3.50;2.78;;;;;;;;;;5061215;28;20230;-16
2022/07/24 03:15:41;;;;;;;4.70;2.47;;;;;;;;;;5051695;28;20246;-17
2022/07/24 03:18:08;;;;;;;2.53;2.33;;;;;;;;;;5063498;28;20240;-17
2022/07/24 03:20:47;;;;;;;3.08;2.63;;;;;;;;;;5071067;28;20307;-17
2022/07/24 03:23:16;;;;;;;2.90;2.47;;;;;;;;;;5069106;28;20247;-16
2022/07/24 03:25:43;;;;;;;3.15;2.85;;;;;;;;;;5050823;28;20222;-16
2022/07/24 03:28:11;;;;;;;4.30;2.83;;;;;;;;;;5050805;28;20240;-16
2022/07/24 03:30:38;;;;;;;2.92;2.70;;;;;;;;;;5051921;28;20232;-16
2022/07/24 03:33:05;;;;;;;3.22;2.53;;;;;;;;;;5070928;28;20225;-17
2022/07/24 03:35:33;;;;;;;3.15;2.83;;;;;;;;;;5055737;28;20241;-16
2022/07/24 03:38:00;;;;;;;3.90;2.78;;;;;;;;;;5057616;28;20232;-16
2022/07/24 03:40:29;;;;;;;2.95;2.75;;;;;;;;;;5071131;28;20232;-16
2022/07/24 03:42:56;;;;;;;3.05;2.80;;;;;;;;;;5070642;28;20241;-16
2022/07/24 03:45:24;;;;;;;4.10;2.50;;;;;;;;;;5069813;28;20240;-16
2022/07/24 03:47:51;;;;;;;3.25;2.50;;;;;;;;;;5056121;28;20244;-17
2022/07/24 03:50:18;;;;;;;3.72;2.60;;;;;;;;;;5070769;28;20234;-17
2022/07/24 03:52:48;;;;;;;2.80;2.60;;;;;;;;;;5056426;28;20682;-17
2022/07/24 03:55:16;;;;;;;2.70;2.50;;;;;;;;;;5061081;28;20271;-16
2022/07/24 03:57:45;;;;;;;3.13;2.70;;;;;;;;;;5052674;28;21123;-16
2022/07/24 04:00:13;;;;;;;3.78;3.08;;;;;;;;;;5057941;28;20230;-17
2022/07/24 04:02:40;;;;;;;3.10;2.90;;;;;;;;;;5064399;28;20234;-16
2022/07/24 04:05:08;;;;;;;3.13;2.83;;;;;;;;;;5042868;28;20230;-16
2022/07/24 04:07:36;;;;;;;3.33;2.80;;;;;;;;;;5065889;28;20285;-17
2022/07/24 04:10:03;;;;;;;3.70;2.90;;;;;;;;;;5069000;28;20233;-17
2022/07/24 04:12:31;;;;;;;3.05;2.78;;;;;;;;;;5060728;28;20978;-16
2022/07/24 04:14:59;;;;;;;3.70;3.25;;;;;;;;;;5071144;28;20248;-17
2022/07/24 04:17:27;;;;;;;3.10;2.80;;;;;;;;;;5063417;28;20232;-17
2022/07/24 04:19:54;;;;;;;2.85;2.63;;;;;;;;;;5059512;28;20230;-17
2022/07/24 04:22:22;;;;;;;3.33;2.97;;;;;;;;;;5073805;28;20324;-17
2022/07/24 04:24:49;;;;;;;4.55;3.38;;;;;;;;;;5059718;28;20763;-17
2022/07/24 04:27:17;;;;;;;3.38;3.08;;;;;;;;;;5073738;28;20684;-16
2022/07/24 04:29:44;;;;;;;4.40;2.80;;;;;;;;;;5062515;28;20222;-16
2022/07/24 04:32:13;;;;;;;4.75;3.40;;;;;;;;;;5058648;28;20227;-16
2022/07/24 04:34:40;;;;;;;4.05;2.97;;;;;;;;;;5065525;28;20619;-16
2022/07/24 04:37:08;;;;;;;3.75;3.30;;;;;;;;;;5053729;28;20693;-17
2022/07/24 04:39:35;;;;;;;3.40;3.10;;;;;;;;;;5053299;28;20232;-16
2022/07/24 04:42:03;;;;;;;3.60;3.17;;;;;;;;;;5064977;28;20237;-17
2022/07/24 04:44:30;;;;;;;3.60;2.78;;;;;;;;;;5072941;28;20225;-17
2022/07/24 04:46:57;;;;;;;3.65;2.75;;;;;;;;;;5068159;28;21042;-16
2022/07/24 04:49:26;;;;;;;3.40;2.95;;;;;;;;;;5059784;28;20369;-17
2022/07/24 04:51:53;;;;;;;2.97;2.78;;;;;;;;;;5066125;28;20232;-16
2022/07/24 04:54:21;;;;;;;3.95;3.00;;;;;;;;;;5068739;28;20235;-16
2022/07/24 04:56:48;;;;;;;3.88;3.17;;;;;;;;;;5073545;28;20243;-16
2022/07/24 04:59:16;;;;;;;3.65;3.30;;;;;;;;;;5073024;28;20313;-16
2022/07/24 05:01:43;;;;;;;3.13;2.85;;;;;;;;;;5054583;28;20240;-16
2022/07/24 05:04:15;;;;;;;3.50;3.20;;;;;;;;;;5065232;28;20233;-16
2022/07/24 05:06:46;;;;;;;3.72;2.90;;;;;;;;;;5068164;28;20234;-17
2022/07/24 05:09:13;;;;;;;5.70;3.33;;;;;;;;;;5052721;28;20233;-16
2022/07/24 05:11:40;;;;;;;4.07;3.30;;;;;;;;;;5071545;28;21013;-16
2022/07/24 05:14:08;;;;;;;3.75;3.13;;;;;;;;;;5054572;28;20235;-17
2022/07/24 05:16:35;;;;;;;3.33;2.90;;;;;;;;;;5055057;28;20238;-17
2022/07/24 05:19:03;;;;;;;3.42;2.90;;;;;;;;;;5073162;28;20221;-16
2022/07/24 05:21:31;;;;;;;3.20;2.90;;;;;;;;;;5072370;28;20232;-16
2022/07/24 05:24:01;;;;;;;3.50;3.03;;;;;;;;;;5072147;28;20244;-16
2022/07/24 05:26:31;;;;;;;3.53;3.22;;;;;;;;;;5066788;28;20246;-16
2022/07/24 05:28:58;;;;;;;3.78;3.22;;;;;;;;;;5070605;28;20234;-17
2022/07/24 05:31:25;;;;;;;3.15;2.85;;;;;;;;;;5060698;28;20233;-17
2022/07/24 05:33:53;;;;;;;3.35;3.03;;;;;;;;;;5057428;28;20655;-16
2022/07/24 05:36:21;;;;;;;3.42;3.13;;;;;;;;;;5059250;28;20334;-16
2022/07/24 05:38:48;;;;;;;4.38;3.40;;;;;;;;;;5059234;28;20230;-16
2022/07/24 05:41:17;;;;;;;4.43;3.70;;;;;;;;;;5072166;28;20229;-16
2022/07/24 05:43:44;;;;;;;3.97;3.67;;;;;;;;;;5072576;28;20236;-16
2022/07/24 05:46:12;;;;;;;4.20;3.80;;;;;;;;;;5057066;28;20241;-16
2022/07/24 05:48:45;;;;;;;3.83;3.47;;;;;;;;;;5052342;28;20693;-17
2022/07/24 05:51:12;;;;;;;3.50;3.20;;;;;;;;;;5070033;28;20234;-16
2022/07/24 05:53:39;;;;;;;4.07;3.67;;;;;;;;;;5072685;28;20229;-16
2022/07/24 05:56:07;;;;;;;4.35;3.78;;;;;;;;;;5058856;28;20759;-17
2022/07/24 05:58:36;;;;;;;6.22;4.18;;;;;;;;;;5067011;28;20229;-17
2022/07/24 06:01:04;;;;;;;6.07;4.43;;;;;;;;;;5052834;28;20242;-17
2022/07/24 06:03:31;;;;;;;6.00;4.65;;;;;;;;;;5072250;28;20230;-17
2022/07/24 06:05:59;;;;;;;4.38;3.97;;;;;;;;;;5072308;28;20592;-16
2022/07/24 06:08:26;;;;;;;4.50;4.05;;;;;;;;;;5068742;28;21152;-16
2022/07/24 06:10:53;;;;;;;4.18;3.70;;;;;;;;;;5063748;28;20684;-16
2022/07/24 06:13:21;;;;;;;4.32;3.85;;;;;;;;;;5072155;28;20225;-16
2022/07/24 06:15:50;;;;;;;5.65;4.38;;;;;;;;;;5065711;28;20238;-16
2022/07/24 06:18:17;;;;;;;5.47;4.75;;;;;;;;;;5066492;28;20633;-17
2022/07/24 06:20:44;;;;;;;4.90;4.50;;;;;;;;;;5059869;28;20774;-17
2022/07/24 06:23:15;;;;;;;5.93;4.40;;;;;;;;;;5070664;28;20245;-16
2022/07/24 06:25:48;;;;;;;6.50;4.60;;;;;;;;;;5063699;28;20233;-17
2022/07/24 06:28:15;;;;;;;7.57;5.15;;;;;;;;;;5066426;28;20236;-16
2022/07/24 06:30:43;;;;;;;6.40;4.63;;;;;;;;;;5051087;28;20413;-16
2022/07/24 06:33:12;;;;;;;6.75;4.80;;;;;;;;;;5063013;28;20238;-17
2022/07/24 06:35:39;;;;;;;6.97;5.53;;;;;;;;;;5064896;28;20259;-16
2022/07/24 06:38:07;;;;;;;5.63;4.68;;;;;;;;;;5059398;28;20332;-17
2022/07/24 06:40:35;;;;;;;5.63;5.03;;;;;;;;;;5071875;28;20240;-16
2022/07/24 06:43:02;;;;;;;6.60;4.93;;;;;;;;;;5061161;28;20237;-17
2022/07/24 06:45:31;;;;;;;5.45;4.93;;;;;;;;;;5051639;28;20296;-17
2022/07/24 06:47:58;;;;;;;5.65;5.00;;;;;;;;;;5068865;28;20237;-16
2022/07/24 06:50:27;;;;;;;7.95;4.88;;;;;;;;;;5060461;28;20851;-16
2022/07/24 06:52:54;;;;;;;6.53;5.32;;;;;;;;;;5065167;28;20232;-16
2022/07/24 06:55:22;;;;;;;6.10;5.03;;;;;;;;;;5071519;28;20237;-17
2022/07/24 06:57:49;;;;;;;6.45;5.65;;;;;;;;;;5071319;28;20237;-16
2022/07/24 07:00:17;;;;;;;6.15;5.55;;;;;;;;;;5059579;28;20230;-16
2022/07/24 07:02:45;;;;;;;7.13;5.75;;;;;;;;;;5065815;28;20230;-17
2022/07/24 07:05:13;;;;;;;6.95;5.70;;;;;;;;;;5059940;28;20236;-16
2022/07/24 07:07:42;;;;;;;6.88;5.40;;;;;;;;;;5070981;28;20233;-16
2022/07/24 07:10:09;;;;;;;7.35;5.93;;;;;;;;;;5071166;28;21005;-16
2022/07/24 07:12:37;;;;;;;6.22;5.40;;;;;;;;;;5070647;28;20225;-16
2022/07/24 07:15:08;;;;;;;7.88;5.72;;;;;;;;;;5066049;28;20234;-17
2022/07/24 07:17:37;;;;;;;5.95;5.25;;;;;;;;;;5062062;28;20237;-17
2022/07/24 07:20:05;;;;;;;6.13;5.35;;;;;;;;;;5056849;28;20328;-17
2022/07/24 07:22:32;;;;;;;6.95;5.13;;;;;;;;;;5071472;28;20240;-17
2022/07/24 07:25:01;;;;;;;7.93;5.40;;;;;;;;;;5070834;28;20225;-16
2022/07/24 07:27:28;;;;;;;6.10;5.35;;;;;;;;;;5050549;28;20712;-17
2022/07/24 07:29:56;;;;;;;5.63;5.07;;;;;;;;;;5051182;28;20718;-17
2022/07/24 07:32:23;;;;;;;5.53;4.85;;;;;;;;;;5063814;28;20829;-17
2022/07/24 07:34:50;;;;;;;6.28;4.97;;;;;;;;;;5059309;28;20325;-17
2022/07/24 07:37:20;;;;;;;5.75;5.18;;;;;;;;;;5055607;28;20237;-17
2022/07/24 07:39:47;;;;;;;5.30;4.82;;;;;;;;;;5071038;28;20232;-16
2022/07/24 07:42:16;;;;;;;6.22;5.07;;;;;;;;;;5070982;28;20320;-16
2022/07/24 07:44:43;;;;;;;6.32;5.28;;;;;;;;;;5071261;28;20237;-17
2022/07/24 07:47:11;;;;;;;5.53;5.03;;;;;;;;;;5063723;28;20233;-16
2022/07/24 07:49:38;;;;;;;6.10;4.75;;;;;;;;;;5069051;28;20233;-17
2022/07/24 07:52:06;;;;;;;7.22;5.35;;;;;;;;;;5070922;28;20229;-16
2022/07/24 07:54:33;;;;;;;6.25;5.57;;;;;;;;;;5067667;28;20332;-17
2022/07/24 07:57:00;;;;;;;6.90;5.53;;;;;;;;;;5059867;28;20240;-16
2022/07/24 07:59:29;;;;;;;6.32;5.20;;;;;;;;;;5053741;28;20231;-17
2022/07/24 08:01:57;;;;;;;6.90;5.22;;;;;;;;;;5057721;28;20229;-17
2022/07/24 08:04:24;;;;;;;6.35;5.10;;;;;;;;;;5056539;28;20716;-17
2022/07/24 08:06:52;;;;;;;6.45;4.93;;;;;;;;;;5057213;28;20229;-16
2022/07/24 08:09:20;;;;;;;6.15;4.45;;;;;;;;;;5067802;28;20232;-16
2022/07/24 08:11:48;;;;;;;5.93;5.30;;;;;;;;;;5064486;28;20332;-17
2022/07/24 08:14:15;;;;;;;5.60;4.95;;;;;;;;;;5061636;28;20693;-16
2022/07/24 08:16:44;;;;;;;5.10;4.60;;;;;;;;;;5059943;28;21019;-17
2022/07/24 08:19:11;;;;;;;6.53;4.78;;;;;;;;;;5070284;28;20961;-17
2022/07/24 08:21:39;;;;;;;5.68;4.90;;;;;;;;;;5055152;28;20324;-16
2022/07/24 08:24:07;;;;;;;5.85;4.60;;;;;;;;;;5070297;28;20237;-17
2022/07/24 08:26:35;;;;;;;4.95;4.45;;;;;;;;;;5055472;28;20979;-16
2022/07/24 08:29:02;;;;;;;6.60;5.45;;;;;;;;;;5067150;28;20995;-16
2022/07/24 08:31:30;;;;;;;5.95;5.03;;;;;;;;;;5046866;28;20615;-16
2022/07/24 08:33:59;;;;;;;6.78;5.13;;;;;;;;;;5051567;28;20269;-16
2022/07/24 08:36:26;;;;;;;7.55;4.95;;;;;;;;;;5070214;28;20233;-16
2022/07/24 08:38:54;;;;;;;6.70;5.38;;;;;;;;;;5056166;28;20238;-16
2022/07/24 08:41:21;;;;;;;6.65;4.68;;;;;;;;;;5070035;28;20701;-16
2022/07/24 08:43:53;;;;;;;5.35;4.85;;;;;;;;;;5068958;28;20351;-16
2022/07/24 08:46:21;;;;;;;6.05;4.80;;;;;;;;;;5055734;28;20226;-16
2022/07/24 08:48:48;;;;;;;5.85;4.47;;;;;;;;;;5058636;28;20234;-16
2022/07/24 08:51:17;;;;;;;5.85;4.65;;;;;;;;;;5067074;28;20296;-16
2022/07/24 08:53:44;;;;;;;5.00;3.83;;;;;;;;;;5063738;28;20360;-16
2022/07/24 08:56:12;;;;;;;5.30;3.92;;;;;;;;;;5066498;28;20232;-16
2022/07/24 08:58:39;;;;;;;4.28;3.88;;;;;;;;;;5070833;28;20252;-16
2022/07/24 09:01:07;;;;;;;5.90;4.60;;;;;;;;;;5051653;28;20234;-16
2022/07/24 09:03:42;;;;;;;5.43;4.38;;;;;;;;;;5066143;28;20265;-16
2022/07/24 09:06:10;;;;;;;4.00;3.60;;;;;;;;;;5052797;28;20247;-16
2022/07/24 09:08:39;;;;;;;4.63;3.78;;;;;;;;;;5073329;28;20231;-16
2022/07/24 09:11:09;;;;;;;7.47;4.05;;;;;;;;;;5059945;28;20848;-16
2022/07/24 09:16:22;;;;;;;4.25;3.80;;;;;;;;;;5051465;28;20712;-16
2022/07/24 09:18:50;;;;;;;5.53;3.65;;;;;;;;;;5052935;28;20325;-16
2022/07/24 09:21:18;;;;;;;4.75;3.42;;;;;;;;;;5052990;28;20236;-16
2022/07/24 09:23:48;;;;;;;5.18;3.30;;;;;;;;;;5071972;28;20703;-16
2022/07/24 09:26:16;;;;;;;4.22;3.53;;;;;;;;;;5071119;28;20234;-16
2022/07/24 09:28:47;;;;;;;5.72;3.40;;;;;;;;;;5056887;28;20241;-16
2022/07/24 09:31:14;;;;;;;3.67;3.30;;;;;;;;;;5050639;28;20609;-16
2022/07/24 09:33:42;;;;;;;5.32;3.08;;;;;;;;;;5073185;28;20221;-16
2022/07/24 09:36:11;;;;;;;5.95;3.28;;;;;;;;;;5072682;28;20233;-16
2022/07/24 09:38:39;;;;;;;3.70;3.22;;;;;;;;;;5070977;28;20229;-16
2022/07/24 09:41:08;;;;;;;4.70;2.88;;;;;;;;;;5072010;28;20238;-16
2022/07/24 09:43:37;;;;;;;4.25;3.40;;;;;;;;;;5072722;28;20240;-16
2022/07/24 09:46:07;;;;;;;3.05;2.75;;;;;;;;;;5058036;28;20225;-16
2022/07/24 09:48:36;;;;;;;4.45;3.08;;;;;;;;;;5067756;28;21081;-16
2022/07/24 09:51:04;;;;;;;5.85;3.00;;;;;;;;;;5068887;28;20684;-16
2022/07/24 09:53:33;;;;;;;3.17;2.70;;;;;;;;;;5072643;28;20260;-16
2022/07/24 09:56:09;;;;;;;3.58;2.80;;;;;;;;;;5072901;28;20240;-16
2022/07/24 09:58:37;;;;;;;3.38;2.95;;;;;;;;;;5072161;28;20265;-16
2022/07/24 10:01:05;;;;;;;3.15;2.70;;;;;;;;;;5054707;28;20721;-16
2022/07/24 10:03:33;;;;;;;3.67;2.95;;;;;;;;;;5072399;28;20233;-16
2022/07/24 10:06:00;;;;;;;4.82;2.85;;;;;;;;;;5071732;28;20333;-16
2022/07/24 10:08:28;;;;;;;3.30;2.80;;;;;;;;;;5071549;28;20239;-16
2022/07/24 10:10:56;;;;;;;5.18;3.10;;;;;;;;;;5044290;28;20985;-16
2022/07/24 10:13:27;;;;;;;4.28;2.65;;;;;;;;;;5070251;28;20225;-16
2022/07/24 10:16:03;;;;;;;5.75;2.97;;;;;;;;;;5064768;28;20261;-16
2022/07/24 10:18:31;;;;;;;2.88;2.55;;;;;;;;;;5070580;28;20618;-16
2022/07/24 10:21:00;;;;;;;5.75;2.38;;;;;;;;;;5071925;28;21285;-16
2022/07/24 10:23:29;;;;;;;3.95;2.47;;;;;;;;;;5065065;28;20245;-16
2022/07/24 10:25:57;;;;;;;2.75;2.50;;;;;;;;;;5061081;28;20225;-16
2022/07/24 10:28:40;;;;;;;2.63;2.42;;;;;;;;;;5071746;28;20384;-16
2022/07/24 10:31:07;;;;;;;6.05;2.50;;;;;;;;;;5057149;28;20233;-16
2022/07/24 10:33:36;;;;;;;2.60;2.40;;;;;;;;;;5059386;28;20237;-16
2022/07/24 10:36:04;;;;;;;2.45;2.25;;;;;;;;;;5065667;28;20709;-16
2022/07/24 10:38:33;;;;;;;2.72;2.40;;;;;;;;;;5062717;28;20328;-16
2022/07/24 10:41:03;;;;;;;2.47;2.17;;;;;;;;;;5052956;28;20225;-16
2022/07/24 10:43:31;;;;;;;2.30;2.10;;;;;;;;;;5070336;28;20237;-16
2022/07/24 10:46:13;;;;;;;2.13;1.92;;;;;;;;;;5066293;28;20237;-16
2022/07/24 10:48:41;;;;;;;2.50;2.30;;;;;;;;;;5071675;28;20240;-16
2022/07/24 10:51:17;;;;;;;2.72;2.30;;;;;;;;;;5071672;28;20233;-16
2022/07/24 10:53:46;;;;;;;2.65;2.30;;;;;;;;;;5072005;28;20248;-16
2022/07/24 10:56:15;;;;;;;3.47;2.22;;;;;;;;;;5069786;28;20237;-16
2022/07/24 10:58:51;;;;;;;3.10;2.67;;;;;;;;;;5065994;28;20238;-16
2022/07/24 11:01:28;;;;;;;3.10;2.25;;;;;;;;;;5057462;28;20226;-16
2022/07/24 11:03:57;;;;;;;6.32;2.33;;;;;;;;;;5071778;28;20233;-16
2022/07/24 11:06:40;;;;;;;2.75;2.30;;;;;;;;;;5062032;28;20321;-16
2022/07/24 11:09:08;;;;;;;3.17;2.10;;;;;;;;;;5068680;28;20257;-16
2022/07/24 11:11:40;;;;;;;3.03;2.05;;;;;;;;;;5071301;28;20233;-16
2022/07/24 11:14:10;;;;;;;2.40;2.20;;;;;;;;;;5071534;28;20226;-16
2022/07/24 11:16:39;;;;;;;2.42;2.22;;;;;;;;;;5060231;28;20230;-16
2022/07/24 11:19:29;;;;;;;3.15;2.60;;;;;;;;;;5071055;28;20269;-16
2022/07/24 11:22:03;;;;;;;2.92;2.35;;;;;;;;;;5069682;28;20266;-16
2022/07/24 11:24:31;;;;;;;2.95;2.30;;;;;;;;;;5059572;28;20243;-16
2022/07/24 11:26:58;;;;;;;3.50;1.98;;;;;;;;;;5065014;28;20273;-16
2022/07/24 11:29:27;;;;;;;3.00;2.42;;;;;;;;;;5055714;28;20285;-16
2022/07/24 11:31:56;;;;;;;3.15;2.13;;;;;;;;;;5068252;28;20226;-16
2022/07/24 11:34:23;;;;;;;2.80;2.00;;;;;;;;;;5056655;28;20266;-16
2022/07/24 11:36:52;;;;;;;2.83;2.40;;;;;;;;;;5059990;28;20244;-16
2022/07/24 11:39:19;;;;;;;3.00;2.55;;;;;;;;;;5050057;28;20245;-16
2022/07/24 11:41:47;;;;;;;2.55;2.20;;;;;;;;;;5060708;28;20447;-16
2022/07/24 11:44:22;;;;;;;2.45;2.25;;;;;;;;;;5070860;28;20238;-16
2022/07/24 11:46:49;;;;;;;2.47;2.20;;;;;;;;;;5065118;28;20445;-16
2022/07/24 11:49:18;;;;;;;3.67;2.40;;;;;;;;;;5068651;28;20838;-16
2022/07/24 11:51:47;;;;;;;4.35;2.13;;;;;;;;;;5050741;28;20226;-16
2022/07/24 11:54:15;;;;;;;2.42;2.10;;;;;;;;;;5050905;28;20715;-16
2022/07/24 11:56:42;;;;;;;2.55;2.30;;;;;;;;;;5064199;28;20637;-16
2022/07/24 11:59:21;;;;;;;2.53;2.33;;;;;;;;;;5052158;28;20226;-16
2022/07/24 12:01:48;;;;;;;2.42;2.10;;;;;;;;;;5051577;28;20226;-16
2022/07/24 12:04:20;;;;;;;2.95;2.15;;;;;;;;;;5057605;28;20234;-16
2022/07/24 12:06:48;;;;;;;2.45;2.00;;;;;;;;;;5070677;28;20244;-16
2022/07/24 12:09:15;;;;;;;2.42;2.10;;;;;;;;;;5070800;28;20233;-16
2022/07/24 12:11:42;;;;;;;2.95;2.17;;;;;;;;;;5067957;28;20256;-18
2022/07/24 12:14:13;;;;;;;4.30;2.25;;;;;;;;;;5070497;28;21019;-16
2022/07/24 12:16:41;;;;;;;3.80;2.03;;;;;;;;;;5060168;28;20614;-16
2022/07/24 12:19:11;;;;;;;2.35;2.10;;;;;;;;;;5070330;28;20233;-16
2022/07/24 12:21:40;;;;;;;2.95;2.35;;;;;;;;;;5070104;28;20240;-17
2022/07/24 12:24:08;;;;;;;2.35;2.15;;;;;;;;;;5068994;28;20237;-16
2022/07/24 12:26:35;;;;;;;2.40;2.20;;;;;;;;;;5070302;28;20308;-16
2022/07/24 12:29:09;;;;;;;2.38;2.15;;;;;;;;;;5062327;28;20218;-16
2022/07/24 12:31:36;;;;;;;2.50;2.30;;;;;;;;;;5053201;28;20236;-16
2022/07/24 12:34:04;;;;;;;2.63;2.40;;;;;;;;;;5057202;28;20234;-16
2022/07/24 12:36:32;;;;;;;2.33;2.10;;;;;;;;;;5064662;28;20284;-16
2022/07/24 12:39:01;;;;;;;2.90;2.00;;;;;;;;;;5068322;28;20229;-16
2022/07/24 12:41:29;;;;;;;2.85;2.20;;;;;;;;;;5073500;28;20245;-16
2022/07/24 12:43:57;;;;;;;2.78;2.47;;;;;;;;;;5073610;28;21034;-16
2022/07/24 12:46:29;;;;;;;2.22;2.03;;;;;;;;;;5050762;28;20324;-16
2022/07/24 12:49:00;;;;;;;2.28;2.05;;;;;;;;;;5073654;28;20320;-16
2022/07/24 12:51:28;;;;;;;2.58;2.22;;;;;;;;;;5073100;28;21067;-16
2022/07/24 12:53:55;;;;;;;2.90;2.20;;;;;;;;;;5073711;28;20233;-16
2022/07/24 12:56:24;;;;;;;2.60;1.90;;;;;;;;;;5065857;28;20233;-16
2022/07/24 12:58:55;;;;;;;2.65;2.40;;;;;;;;;;5063032;28;20975;-16
2022/07/24 13:01:23;;;;;;;3.78;2.35;;;;;;;;;;5059266;28;20241;-16
2022/07/24 13:03:55;;;;;;;2.40;2.15;;;;;;;;;;5073077;28;20239;-16
2022/07/24 13:06:32;;;;;;;2.17;1.98;;;;;;;;;;5070250;28;20230;-16
2022/07/24 13:08:59;;;;;;;2.72;2.10;;;;;;;;;;5053687;28;20232;-16
2022/07/24 13:11:28;;;;;;;2.97;2.30;;;;;;;;;;5069225;28;20233;-16
2022/07/24 13:13:55;;;;;;;3.00;2.10;;;;;;;;;;5064927;28;20362;-16
2022/07/24 13:16:23;;;;;;;5.35;2.40;;;;;;;;;;5056944;28;20717;-16
2022/07/24 13:18:51;;;;;;;2.72;2.50;;;;;;;;;;5064858;28;21046;-16
2022/07/24 13:21:20;;;;;;;3.38;2.47;;;;;;;;;;5053097;28;20238;-16
2022/07/24 13:23:47;;;;;;;3.22;1.98;;;;;;;;;;5071996;28;20339;-16
2022/07/24 13:26:14;;;;;;;2.30;2.10;;;;;;;;;;5072213;28;20620;-16
2022/07/24 13:28:43;;;;;;;1.90;1.80;;;;;;;;;;5050890;28;20231;-16
2022/07/24 13:31:10;;;;;;;3.53;2.25;;;;;;;;;;5070130;28;20703;-16
2022/07/24 13:33:38;;;;;;;2.03;1.83;;;;;;;;;;5060041;28;20234;-16
2022/07/24 13:36:06;;;;;;;2.72;1.95;;;;;;;;;;5057754;28;20230;-16
2022/07/24 13:38:34;;;;;;;2.25;2.00;;;;;;;;;;5061263;28;20843;-16
2022/07/24 13:41:02;;;;;;;3.40;2.00;;;;;;;;;;5057290;28;20234;-16
2022/07/24 13:43:29;;;;;;;2.17;1.98;;;;;;;;;;5072574;28;20685;-16
2022/07/24 13:45:58;;;;;;;2.08;1.83;;;;;;;;;;5058313;28;20226;-16
2022/07/24 13:48:25;;;;;;;3.17;1.95;;;;;;;;;;5072827;28;20221;-16
2022/07/24 13:50:53;;;;;;;2.53;2.17;;;;;;;;;;5057311;28;20325;-16
2022/07/24 13:53:20;;;;;;;2.20;2.00;;;;;;;;;;5065676;28;20236;-16
2022/07/24 13:55:47;;;;;;;2.22;1.90;;;;;;;;;;5065533;28;20222;-16
2022/07/24 13:58:15;;;;;;;2.92;2.10;;;;;;;;;;5068203;28;20264;-16
2022/07/24 14:00:42;;;;;;;2.50;2.10;;;;;;;;;;5050190;28;20234;-16
2022/07/24 14:03:11;;;;;;;3.03;2.10;;;;;;;;;;5052606;28;21099;-16
2022/07/24 14:05:58;;;;;;;2.20;2.00;;;;;;;;;;5052331;28;20226;-16
2022/07/24 14:08:26;;;;;;;2.33;2.03;;;;;;;;;;5066357;28;20694;-16
2022/07/24 14:10:54;;;;;;;2.10;2.00;;;;;;;;;;5052152;28;20702;-16
2022/07/24 14:13:21;;;;;;;2.03;1.83;;;;;;;;;;5051327;28;20322;-16
2022/07/24 14:15:48;;;;;;;2.10;1.90;;;;;;;;;;5055158;28;20226;-16
2022/07/24 14:18:17;;;;;;;2.33;2.00;;;;;;;;;;5068461;28;20237;-16
2022/07/24 14:20:45;;;;;;;2.95;2.00;;;;;;;;;;5072294;28;20241;-16
2022/07/24 14:23:12;;;;;;;4.70;2.30;;;;;;;;;;5055564;28;20328;-16
2022/07/24 14:25:39;;;;;;;5.07;2.10;;;;;;;;;;5058954;28;20236;-16
2022/07/24 14:28:07;;;;;;;2.30;2.10;;;;;;;;;;5070226;28;20232;-16
2022/07/24 14:30:34;;;;;;;2.05;1.83;;;;;;;;;;5068324;28;20230;-16
2022/07/24 14:33:02;;;;;;;2.22;2.03;;;;;;;;;;5072025;28;20229;-16
2022/07/24 14:35:31;;;;;;;2.15;1.95;;;;;;;;;;5068061;28;20302;-16
2022/07/24 14:37:58;;;;;;;3.40;2.28;;;;;;;;;;5051610;28;20713;-16
2022/07/24 14:40:26;;;;;;;2.92;2.00;;;;;;;;;;5063835;28;20312;-16
2022/07/24 14:42:54;;;;;;;3.15;1.75;;;;;;;;;;5071996;28;20222;-16
2022/07/24 14:45:21;;;;;;;2.35;2.15;;;;;;;;;;5059645;28;20613;-16
2022/07/24 14:47:49;;;;;;;2.70;1.95;;;;;;;;;;5069313;28;20230;-16
2022/07/24 14:50:16;;;;;;;3.33;2.00;;;;;;;;;;5061699;28;20273;-16
2022/07/24 14:52:45;;;;;;;2.20;2.00;;;;;;;;;;5067372;28;20228;-16